sensor_id;sensor_type;location;lat;lon;timestamp;temperature;humidity
64869;DHT22;51349;52.424;10.840;2023-05-10T05:54:22;12.90;95.40
64869;DHT22;51349;52.424;10.840;2023-05-10T05:59:23;12.80;95.50
64869;DHT22;51349;52.424;10.840;2023-05-10T06:04:27;12.70;95.60
64869;DHT22;51349;52.424;10.840;2023-05-10T06:09:27;12.60;95.60
64869;DHT22;51349;52.424;10.840;2023-05-10T06:14:50;12.60;96.00
64869;DHT22;51349;52.424;10.840;2023-05-10T06:19:51;12.70;96.00
64869;DHT22;51349;52.424;10.840;2023-05-10T06:24:52;12.90;96.00
64869;DHT22;51349;52.424;10.840;2023-05-10T06:30:27;12.90;95.80
64869;DHT22;51349;52.424;10.840;2023-05-10T06:35:29;13.20;95.80
64869;DHT22;51349;52.424;10.840;2023-05-10T06:41:05;13.30;95.80
64869;DHT22;51349;52.424;10.840;2023-05-10T06:52:15;13.20;95.70
64869;DHT22;51349;52.424;10.840;2023-05-10T07:03:12;13.30;95.90
64869;DHT22;51349;52.424;10.840;2023-05-10T07:13:55;13.60;95.90
64869;DHT22;51349;52.424;10.840;2023-05-10T07:19:23;13.70;95.80
64869;DHT22;51349;52.424;10.840;2023-05-10T07:24:24;13.60;95.90
64869;DHT22;51349;52.424;10.840;2023-05-10T07:35:21;14.00;95.60
64869;DHT22;51349;52.424;10.840;2023-05-10T07:40:25;14.40;95.50
64869;DHT22;51349;52.424;10.840;2023-05-10T07:45:26;14.30;95.30
64869;DHT22;51349;52.424;10.840;2023-05-10T07:50:51;14.40;95.80
64869;DHT22;51349;52.424;10.840;2023-05-10T07:55:57;14.40;96.10
64869;DHT22;51349;52.424;10.840;2023-05-10T08:01:17;15.10;96.00
64869;DHT22;51349;52.424;10.840;2023-05-10T08:06:19;15.30;96.90
64869;DHT22;51349;52.424;10.840;2023-05-10T08:11:57;15.70;96.20
64869;DHT22;51349;52.424;10.840;2023-05-10T08:16:59;16.00;95.50
64869;DHT22;51349;52.424;10.840;2023-05-10T08:22:28;16.10;95.60
64869;DHT22;51349;52.424;10.840;2023-05-10T08:33:25;16.00;95.60
64869;DHT22;51349;52.424;10.840;2023-05-10T08:38:26;15.80;96.50
64869;DHT22;51349;52.424;10.840;2023-05-10T08:43:31;15.80;97.60
64869;DHT22;51349;52.424;10.840;2023-05-10T08:54:16;15.90;98.60
64869;DHT22;51349;52.424;10.840;2023-05-10T08:59:38;15.90;98.60
64869;DHT22;51349;52.424;10.840;2023-05-10T09:04:40;15.80;99.90
64869;DHT22;51349;52.424;10.840;2023-05-10T09:10:05;15.60;99.90
64869;DHT22;51349;52.424;10.840;2023-05-10T09:21:37;15.40;99.90
64869;DHT22;51349;52.424;10.840;2023-05-10T09:32:59;14.70;99.90
64869;DHT22;51349;52.424;10.840;2023-05-10T09:38:03;14.80;99.90
64869;DHT22;51349;52.424;10.840;2023-05-10T09:43:07;14.80;99.90
64869;DHT22;51349;52.424;10.840;2023-05-10T09:48:08;15.10;99.90
64869;DHT22;51349;52.424;10.840;2023-05-10T09:53:08;14.80;99.90
64869;DHT22;51349;52.424;10.840;2023-05-10T09:58:09;14.70;99.90
64869;DHT22;51349;52.424;10.840;2023-05-10T10:03:15;14.90;99.90
64869;DHT22;51349;52.424;10.840;2023-05-10T10:08:17;14.90;99.90
64869;DHT22;51349;52.424;10.840;2023-05-10T10:13:18;15.20;99.90
64869;DHT22;51349;52.424;10.840;2023-05-10T10:18:19;15.40;99.90
64869;DHT22;51349;52.424;10.840;2023-05-10T10:23:23;15.50;99.90
64869;DHT22;51349;52.424;10.840;2023-05-10T10:28:34;15.60;99.90
64869;DHT22;51349;52.424;10.840;2023-05-10T10:33:49;15.70;99.90
64869;DHT22;51349;52.424;10.840;2023-05-10T10:38:55;15.60;99.90
64869;DHT22;51349;52.424;10.840;2023-05-10T10:49:37;15.90;99.90
64869;DHT22;51349;52.424;10.840;2023-05-10T10:54:38;15.90;99.90
64869;DHT22;51349;52.424;10.840;2023-05-10T10:59:42;15.70;99.90
64869;DHT22;51349;52.424;10.840;2023-05-10T11:04:44;15.70;99.90
64869;DHT22;51349;52.424;10.840;2023-05-10T11:09:47;15.50;99.90
64869;DHT22;51349;52.424;10.840;2023-05-10T11:14:51;15.30;99.90
64869;DHT22;51349;52.424;10.840;2023-05-10T11:20:09;15.30;99.90
64869;DHT22;51349;52.424;10.840;2023-05-10T11:25:10;15.10;99.90
64869;DHT22;51349;52.424;10.840;2023-05-10T11:30:11;15.00;99.90
64869;DHT22;51349;52.424;10.840;2023-05-10T11:35:12;15.40;99.90
64869;DHT22;51349;52.424;10.840;2023-05-10T11:40:13;15.40;99.90
64869;DHT22;51349;52.424;10.840;2023-05-10T11:45:14;15.40;99.90
64869;DHT22;51349;52.424;10.840;2023-05-10T11:50:16;15.40;99.90
64869;DHT22;51349;52.424;10.840;2023-05-10T11:55:17;15.60;99.90
64869;DHT22;51349;52.424;10.840;2023-05-10T12:00:18;15.80;99.90
64869;DHT22;51349;52.424;10.840;2023-05-10T12:05:19;15.90;99.90
64869;DHT22;51349;52.424;10.840;2023-05-10T12:10:26;15.70;99.90
64869;DHT22;51349;52.424;10.840;2023-05-10T12:15:27;15.30;99.90
64869;DHT22;51349;52.424;10.840;2023-05-10T12:20:28;15.30;99.90
64869;DHT22;51349;52.424;10.840;2023-05-10T12:25:34;15.20;99.90
64869;DHT22;51349;52.424;10.840;2023-05-10T12:30:36;15.10;99.90
64869;DHT22;51349;52.424;10.840;2023-05-10T13:35:47;16.50;99.90
64869;DHT22;51349;52.424;10.840;2023-05-10T13:40:48;16.80;99.90
64869;DHT22;51349;52.424;10.840;2023-05-10T13:45:52;17.30;99.90
64869;DHT22;51349;52.424;10.840;2023-05-10T13:50:53;17.60;99.90
64869;DHT22;51349;52.424;10.840;2023-05-10T13:55:54;17.20;99.90
64869;DHT22;51349;52.424;10.840;2023-05-10T14:00:55;17.60;99.90
64869;DHT22;51349;52.424;10.840;2023-05-10T14:05:56;17.80;99.90
64869;DHT22;51349;52.424;10.840;2023-05-10T14:10:56;17.80;99.90
64869;DHT22;51349;52.424;10.840;2023-05-10T14:15:57;18.10;99.90
64869;DHT22;51349;52.424;10.840;2023-05-10T14:21:02;17.80;99.90
64869;DHT22;51349;52.424;10.840;2023-05-10T14:26:02;18.50;99.90
64869;DHT22;51349;52.424;10.840;2023-05-10T14:31:03;19.00;99.90
64869;DHT22;51349;52.424;10.840;2023-05-10T14:36:04;19.50;99.90
64869;DHT22;51349;52.424;10.840;2023-05-10T14:41:05;19.80;99.90
64869;DHT22;51349;52.424;10.840;2023-05-10T14:46:05;19.70;99.90
64869;DHT22;51349;52.424;10.840;2023-05-10T14:51:06;19.60;99.90
64869;DHT22;51349;52.424;10.840;2023-05-10T14:56:07;19.00;99.90
64869;DHT22;51349;52.424;10.840;2023-05-10T15:01:07;18.50;99.90
64869;DHT22;51349;52.424;10.840;2023-05-10T15:06:08;18.40;99.90
64869;DHT22;51349;52.424;10.840;2023-05-10T15:11:09;17.80;99.90
64869;DHT22;51349;52.424;10.840;2023-05-10T15:16:10;17.90;99.90
64869;DHT22;51349;52.424;10.840;2023-05-10T15:21:14;18.10;99.90
64869;DHT22;51349;52.424;10.840;2023-05-10T15:26:15;18.00;99.90
64869;DHT22;51349;52.424;10.840;2023-05-10T15:31:16;18.10;99.90
64869;DHT22;51349;52.424;10.840;2023-05-10T15:36:16;18.20;99.90
64869;DHT22;51349;52.424;10.840;2023-05-10T15:41:18;17.90;99.90
64869;DHT22;51349;52.424;10.840;2023-05-10T15:46:18;17.50;99.90
64869;DHT22;51349;52.424;10.840;2023-05-10T15:51:19;17.90;99.90
64869;DHT22;51349;52.424;10.840;2023-05-10T15:56:20;17.70;99.90
64869;DHT22;51349;52.424;10.840;2023-05-10T16:01:21;17.60;99.90
64869;DHT22;51349;52.424;10.840;2023-05-10T16:06:22;17.50;99.90
64869;DHT22;51349;52.424;10.840;2023-05-10T16:11:22;17.60;99.90
64869;DHT22;51349;52.424;10.840;2023-05-10T16:16:23;17.50;99.90
64869;DHT22;51349;52.424;10.840;2023-05-10T16:21:24;17.70;99.90
64869;DHT22;51349;52.424;10.840;2023-05-10T16:26:24;17.80;99.90
64869;DHT22;51349;52.424;10.840;2023-05-10T16:31:25;17.90;99.90
64869;DHT22;51349;52.424;10.840;2023-05-10T16:36:26;17.70;99.90
64869;DHT22;51349;52.424;10.840;2023-05-10T16:41:27;17.60;99.90
64869;DHT22;51349;52.424;10.840;2023-05-10T16:46:28;17.60;99.90
64869;DHT22;51349;52.424;10.840;2023-05-10T16:51:28;17.40;99.90
64869;DHT22;51349;52.424;10.840;2023-05-10T16:56:29;17.50;99.90
64869;DHT22;51349;52.424;10.840;2023-05-10T17:01:30;17.40;99.90
64869;DHT22;51349;52.424;10.840;2023-05-10T17:06:30;17.40;99.90
64869;DHT22;51349;52.424;10.840;2023-05-10T17:11:32;17.40;99.90
64869;DHT22;51349;52.424;10.840;2023-05-10T17:16:32;17.40;99.90
64869;DHT22;51349;52.424;10.840;2023-05-10T17:21:33;17.30;99.90
64869;DHT22;51349;52.424;10.840;2023-05-10T17:26:34;17.10;99.90
64869;DHT22;51349;52.424;10.840;2023-05-10T17:31:34;17.10;99.90
64869;DHT22;51349;52.424;10.840;2023-05-10T17:36:35;17.00;99.90
64869;DHT22;51349;52.424;10.840;2023-05-10T17:41:35;17.10;99.90
64869;DHT22;51349;52.424;10.840;2023-05-10T17:46:36;16.90;99.90
64869;DHT22;51349;52.424;10.840;2023-05-10T17:51:37;16.80;99.90
64869;DHT22;51349;52.424;10.840;2023-05-10T17:56:38;16.80;99.90
64869;DHT22;51349;52.424;10.840;2023-05-10T18:01:39;16.70;99.90
64869;DHT22;51349;52.424;10.840;2023-05-10T18:06:40;16.70;99.90
64869;DHT22;51349;52.424;10.840;2023-05-10T18:11:41;16.50;99.90
64869;DHT22;51349;52.424;10.840;2023-05-10T18:16:42;16.50;99.90
64869;DHT22;51349;52.424;10.840;2023-05-10T18:21:42;16.30;99.90
64869;DHT22;51349;52.424;10.840;2023-05-10T18:26:43;16.30;99.90
64869;DHT22;51349;52.424;10.840;2023-05-10T18:31:44;16.20;99.90
64869;DHT22;51349;52.424;10.840;2023-05-10T18:36:44;16.00;99.90
64869;DHT22;51349;52.424;10.840;2023-05-10T18:41:45;15.90;99.90
64869;DHT22;51349;52.424;10.840;2023-05-10T18:46:46;15.80;99.90
64869;DHT22;51349;52.424;10.840;2023-05-10T18:51:46;15.70;99.90
64869;DHT22;51349;52.424;10.840;2023-05-10T18:56:48;15.60;99.90
64869;DHT22;51349;52.424;10.840;2023-05-10T19:01:49;15.50;99.90
64869;DHT22;51349;52.424;10.840;2023-05-10T19:06:50;15.30;99.90
64869;DHT22;51349;52.424;10.840;2023-05-10T19:11:51;15.30;99.90
64869;DHT22;51349;52.424;10.840;2023-05-10T19:16:51;15.30;99.90
64869;DHT22;51349;52.424;10.840;2023-05-10T19:21:52;15.20;99.90
64869;DHT22;51349;52.424;10.840;2023-05-10T19:26:53;15.10;99.90
64869;DHT22;51349;52.424;10.840;2023-05-10T19:31:55;15.10;99.90
64869;DHT22;51349;52.424;10.840;2023-05-10T19:36:56;15.00;99.90
64869;DHT22;51349;52.424;10.840;2023-05-10T19:41:56;14.90;99.90
64869;DHT22;51349;52.424;10.840;2023-05-10T19:46:57;14.90;99.90
64869;DHT22;51349;52.424;10.840;2023-05-10T19:51:58;14.80;99.90
64869;DHT22;51349;52.424;10.840;2023-05-10T19:56:58;14.70;99.90
64869;DHT22;51349;52.424;10.840;2023-05-10T20:01:59;14.60;99.90
64869;DHT22;51349;52.424;10.840;2023-05-10T20:07:00;14.60;99.90
64869;DHT22;51349;52.424;10.840;2023-05-10T20:12:00;14.50;99.90
64869;DHT22;51349;52.424;10.840;2023-05-10T20:17:01;14.40;99.90
64869;DHT22;51349;52.424;10.840;2023-05-10T20:22:02;14.30;99.90
64869;DHT22;51349;52.424;10.840;2023-05-10T20:27:04;14.20;99.90
64869;DHT22;51349;52.424;10.840;2023-05-10T20:32:05;14.00;99.90
64869;DHT22;51349;52.424;10.840;2023-05-10T20:37:05;13.90;99.90
64869;DHT22;51349;52.424;10.840;2023-05-10T20:42:07;13.80;99.90
64869;DHT22;51349;52.424;10.840;2023-05-10T20:47:08;13.60;99.90
64869;DHT22;51349;52.424;10.840;2023-05-10T20:52:09;13.60;99.90
64869;DHT22;51349;52.424;10.840;2023-05-10T20:57:09;13.50;99.90
64869;DHT22;51349;52.424;10.840;2023-05-10T21:02:16;13.40;99.90
64869;DHT22;51349;52.424;10.840;2023-05-10T21:07:19;13.30;99.90
64869;DHT22;51349;52.424;10.840;2023-05-10T21:12:20;13.30;99.90
64869;DHT22;51349;52.424;10.840;2023-05-10T21:17:21;13.20;99.90
64869;DHT22;51349;52.424;10.840;2023-05-10T21:22:21;13.10;99.90
64869;DHT22;51349;52.424;10.840;2023-05-10T21:27:22;13.00;99.90
64869;DHT22;51349;52.424;10.840;2023-05-10T21:32:23;12.90;99.90
64869;DHT22;51349;52.424;10.840;2023-05-10T21:37:26;12.80;99.90
64869;DHT22;51349;52.424;10.840;2023-05-10T21:42:27;12.70;99.90
64869;DHT22;51349;52.424;10.840;2023-05-10T21:47:27;12.70;99.90
64869;DHT22;51349;52.424;10.840;2023-05-10T21:52:28;12.70;99.90
64869;DHT22;51349;52.424;10.840;2023-05-10T21:57:29;12.80;99.90
64869;DHT22;51349;52.424;10.840;2023-05-10T22:02:30;12.80;99.90
64869;DHT22;51349;52.424;10.840;2023-05-10T22:07:31;12.80;99.90
64869;DHT22;51349;52.424;10.840;2023-05-10T22:12:31;12.80;99.90
64869;DHT22;51349;52.424;10.840;2023-05-10T22:17:32;12.80;99.90
64869;DHT22;51349;52.424;10.840;2023-05-10T22:22:36;12.70;99.90
64869;DHT22;51349;52.424;10.840;2023-05-10T22:27:36;12.70;99.90
64869;DHT22;51349;52.424;10.840;2023-05-10T22:32:37;12.70;99.90
64869;DHT22;51349;52.424;10.840;2023-05-10T22:37:38;12.80;99.90
64869;DHT22;51349;52.424;10.840;2023-05-10T22:42:38;12.80;99.90
64869;DHT22;51349;52.424;10.840;2023-05-10T22:47:39;12.80;99.90
64869;DHT22;51349;52.424;10.840;2023-05-10T22:52:40;12.80;99.90
64869;DHT22;51349;52.424;10.840;2023-05-10T22:57:40;12.70;99.90
64869;DHT22;51349;52.424;10.840;2023-05-10T23:02:41;12.80;99.90
64869;DHT22;51349;52.424;10.840;2023-05-10T23:07:42;12.80;99.90
64869;DHT22;51349;52.424;10.840;2023-05-10T23:12:43;12.80;99.90
64869;DHT22;51349;52.424;10.840;2023-05-10T23:17:43;12.70;99.90
64869;DHT22;51349;52.424;10.840;2023-05-10T23:22:44;12.70;99.90
64869;DHT22;51349;52.424;10.840;2023-05-10T23:27:45;12.70;99.90
64869;DHT22;51349;52.424;10.840;2023-05-10T23:32:48;12.70;99.90
64869;DHT22;51349;52.424;10.840;2023-05-10T23:37:49;12.60;99.90
64869;DHT22;51349;52.424;10.840;2023-05-10T23:42:50;12.60;99.90
64869;DHT22;51349;52.424;10.840;2023-05-10T23:47:50;12.60;99.90
64869;DHT22;51349;52.424;10.840;2023-05-10T23:52:52;12.50;99.90
64869;DHT22;51349;52.424;10.840;2023-05-10T23:57:53;12.50;99.90
